sensor_id;sensor_type;location;lat;lon;timestamp;pressure;altitude;pressure_sealevel;temperature;humidity
6449;BME280;3257;52.298;13.690;2022-07-06T00:02:17;76914.56;;;-144.77;51.06
6449;BME280;3257;52.298;13.690;2022-07-06T00:04:44;76908.59;;;-144.77;51.37
6449;BME280;3257;52.298;13.690;2022-07-06T00:07:11;76910.59;;;-144.77;51.79
6449;BME280;3257;52.298;13.690;2022-07-06T00:09:37;76916.53;;;-144.77;51.98
6449;BME280;3257;52.298;13.690;2022-07-06T00:12:04;76910.59;;;-144.77;52.15
6449;BME280;3257;52.298;13.690;2022-07-06T00:14:30;76924.50;;;-144.77;52.66
6449;BME280;3257;52.298;13.690;2022-07-06T00:16:57;76930.47;;;-144.77;52.83
6449;BME280;3257;52.298;13.690;2022-07-06T00:19:24;76930.47;;;-144.77;52.82
6449;BME280;3257;52.298;13.690;2022-07-06T00:21:51;76924.50;;;-144.77;53.36
6449;BME280;3257;52.298;13.690;2022-07-06T00:24:17;76920.53;;;-144.77;53.66
6449;BME280;3257;52.298;13.690;2022-07-06T00:26:47;76912.56;;;-144.77;54.12
6449;BME280;3257;52.298;13.690;2022-07-06T00:29:13;76902.63;;;-144.77;54.14
6449;BME280;3257;52.298;13.690;2022-07-06T00:31:40;76904.63;;;-144.77;54.73
6449;BME280;3257;52.298;13.690;2022-07-06T00:34:07;76892.69;;;-144.77;54.47
6449;BME280;3257;52.298;13.690;2022-07-06T00:36:33;76894.69;;;-144.77;55.29
6449;BME280;3257;52.298;13.690;2022-07-06T00:39:00;76898.66;;;-144.77;54.96
6449;BME280;3257;52.298;13.690;2022-07-06T00:41:26;76904.63;;;-144.77;55.23
6449;BME280;3257;52.298;13.690;2022-07-06T00:43:54;76906.59;;;-144.77;55.44
6449;BME280;3257;52.298;13.690;2022-07-06T00:46:31;76906.59;;;-144.77;55.82
6449;BME280;3257;52.298;13.690;2022-07-06T00:48:58;76900.66;;;-144.77;56.04
6449;BME280;3257;52.298;13.690;2022-07-06T00:51:29;76900.66;;;-144.77;56.04
6449;BME280;3257;52.298;13.690;2022-07-06T00:53:59;76904.63;;;-144.77;56.16
6449;BME280;3257;52.298;13.690;2022-07-06T00:56:29;76884.75;;;-144.77;55.54
6449;BME280;3257;52.298;13.690;2022-07-06T00:58:56;76894.69;;;-144.77;56.62
6449;BME280;3257;52.298;13.690;2022-07-06T01:01:22;76896.66;;;-144.77;56.80
6449;BME280;3257;52.298;13.690;2022-07-06T01:03:49;76908.59;;;-144.77;56.51
6449;BME280;3257;52.298;13.690;2022-07-06T01:06:16;76906.59;;;-144.77;56.68
6449;BME280;3257;52.298;13.690;2022-07-06T01:08:43;76906.59;;;-144.77;56.49
6449;BME280;3257;52.298;13.690;2022-07-06T01:11:10;76906.59;;;-144.77;56.96
6449;BME280;3257;52.298;13.690;2022-07-06T01:13:37;76906.59;;;-144.77;56.76
6449;BME280;3257;52.298;13.690;2022-07-06T01:16:04;76904.63;;;-144.77;57.15
6449;BME280;3257;52.298;13.690;2022-07-06T01:18:32;76898.66;;;-144.77;56.64
6449;BME280;3257;52.298;13.690;2022-07-06T01:21:09;76888.72;;;-144.77;56.85
6449;BME280;3257;52.298;13.690;2022-07-06T01:23:44;76882.75;;;-144.77;56.87
6449;BME280;3257;52.298;13.690;2022-07-06T01:26:21;76884.75;;;-144.77;56.74
6449;BME280;3257;52.298;13.690;2022-07-06T01:28:51;76888.72;;;-144.77;56.49
6449;BME280;3257;52.298;13.690;2022-07-06T01:31:23;76900.66;;;-144.77;56.92
6449;BME280;3257;52.298;13.690;2022-07-06T01:33:52;76912.56;;;-144.77;57.52
6449;BME280;3257;52.298;13.690;2022-07-06T01:36:20;76916.53;;;-144.77;57.71
6449;BME280;3257;52.298;13.690;2022-07-06T01:38:48;76928.47;;;-144.77;57.84
6449;BME280;3257;52.298;13.690;2022-07-06T01:41:16;76932.44;;;-144.77;58.39
6449;BME280;3257;52.298;13.690;2022-07-06T01:43:43;76934.44;;;-144.77;58.29
6449;BME280;3257;52.298;13.690;2022-07-06T01:46:10;76944.38;;;-144.77;58.74
6449;BME280;3257;52.298;13.690;2022-07-06T01:48:37;76954.31;;;-144.77;59.10
6449;BME280;3257;52.298;13.690;2022-07-06T01:51:04;76970.19;;;-144.77;59.78
6449;BME280;3257;52.298;13.690;2022-07-06T01:53:31;76988.09;;;-144.77;60.77
6449;BME280;3257;52.298;13.690;2022-07-06T01:55:58;77007.97;;;-144.77;60.80
6449;BME280;3257;52.298;13.690;2022-07-06T01:58:25;77015.91;;;-144.77;60.96
6449;BME280;3257;52.298;13.690;2022-07-06T02:00:52;77023.88;;;-144.77;61.69
6449;BME280;3257;52.298;13.690;2022-07-06T02:03:18;77027.84;;;-144.77;61.53
6449;BME280;3257;52.298;13.690;2022-07-06T02:05:45;77031.81;;;-144.77;61.64
6449;BME280;3257;52.298;13.690;2022-07-06T02:08:11;77031.81;;;-144.77;61.77
6449;BME280;3257;52.298;13.690;2022-07-06T02:10:38;77051.69;;;-144.77;62.69
6449;BME280;3257;52.298;13.690;2022-07-06T02:13:05;77063.63;;;-144.77;62.69
6449;BME280;3257;52.298;13.690;2022-07-06T02:15:31;77073.56;;;-144.77;63.19
6449;BME280;3257;52.298;13.690;2022-07-06T02:17:58;77097.41;;;-144.77;63.81
6449;BME280;3257;52.298;13.690;2022-07-06T02:20:24;77095.41;;;-144.77;63.54
6449;BME280;3257;52.298;13.690;2022-07-06T02:22:51;77097.41;;;-144.77;63.57
6449;BME280;3257;52.298;13.690;2022-07-06T02:25:18;77095.41;;;-144.77;63.65
6449;BME280;3257;52.298;13.690;2022-07-06T02:27:44;77075.53;;;-144.77;63.40
6449;BME280;3257;52.298;13.690;2022-07-06T02:30:11;77087.47;;;-144.77;63.90
6449;BME280;3257;52.298;13.690;2022-07-06T02:32:38;77095.41;;;-144.77;64.03
6449;BME280;3257;52.298;13.690;2022-07-06T02:35:04;77077.53;;;-144.77;63.22
6449;BME280;3257;52.298;13.690;2022-07-06T02:37:31;77079.50;;;-144.77;62.98
6449;BME280;3257;52.298;13.690;2022-07-06T02:39:57;77071.56;;;-144.77;63.03
6449;BME280;3257;52.298;13.690;2022-07-06T02:42:24;77067.59;;;-144.77;63.52
6449;BME280;3257;52.298;13.690;2022-07-06T02:44:52;77055.66;;;-144.77;62.94
6449;BME280;3257;52.298;13.690;2022-07-06T02:47:19;77053.69;;;-144.77;62.64
6449;BME280;3257;52.298;13.690;2022-07-06T02:49:46;77045.72;;;-144.77;62.43
6449;BME280;3257;52.298;13.690;2022-07-06T02:52:12;77043.75;;;-144.77;62.49
6449;BME280;3257;52.298;13.690;2022-07-06T02:54:39;77033.81;;;-144.77;62.14
6449;BME280;3257;52.298;13.690;2022-07-06T02:57:05;77019.88;;;-144.77;61.58
6449;BME280;3257;52.298;13.690;2022-07-06T02:59:32;77023.88;;;-144.77;61.12
6449;BME280;3257;52.298;13.690;2022-07-06T03:01:58;77007.97;;;-144.77;60.69
6449;BME280;3257;52.298;13.690;2022-07-06T03:04:25;77005.97;;;-144.77;60.77
6449;BME280;3257;52.298;13.690;2022-07-06T03:06:51;76996.03;;;-144.77;60.87
6449;BME280;3257;52.298;13.690;2022-07-06T03:09:18;77000.00;;;-144.77;60.98
6449;BME280;3257;52.298;13.690;2022-07-06T03:11:45;76994.06;;;-144.77;59.79
6449;BME280;3257;52.298;13.690;2022-07-06T03:14:11;76980.13;;;-144.77;59.59
6449;BME280;3257;52.298;13.690;2022-07-06T03:16:38;76980.13;;;-144.77;59.41
6449;BME280;3257;52.298;13.690;2022-07-06T03:19:04;76970.19;;;-144.77;59.68
6449;BME280;3257;52.298;13.690;2022-07-06T03:21:31;76974.19;;;-144.77;59.07
6449;BME280;3257;52.298;13.690;2022-07-06T03:23:58;76980.13;;;-144.77;58.76
6449;BME280;3257;52.298;13.690;2022-07-06T03:26:24;76970.19;;;-144.77;58.32
6449;BME280;3257;52.298;13.690;2022-07-06T03:28:51;76978.16;;;-144.77;58.35
6449;BME280;3257;52.298;13.690;2022-07-06T03:31:17;76964.25;;;-144.77;58.34
6449;BME280;3257;52.298;13.690;2022-07-06T03:33:44;76952.31;;;-144.77;58.01
6449;BME280;3257;52.298;13.690;2022-07-06T03:36:11;76960.25;;;-144.77;57.73
6449;BME280;3257;52.298;13.690;2022-07-06T03:38:37;76952.31;;;-144.77;57.77
6449;BME280;3257;52.298;13.690;2022-07-06T03:41:04;76956.28;;;-144.77;57.49
6449;BME280;3257;52.298;13.690;2022-07-06T03:43:30;76952.31;;;-144.77;57.57
6449;BME280;3257;52.298;13.690;2022-07-06T03:45:57;76956.28;;;-144.77;57.72
6449;BME280;3257;52.298;13.690;2022-07-06T03:48:24;76960.25;;;-144.77;58.07
6449;BME280;3257;52.298;13.690;2022-07-06T03:50:52;76952.31;;;-144.77;57.85
6449;BME280;3257;52.298;13.690;2022-07-06T03:53:18;76952.31;;;-144.77;57.92
6449;BME280;3257;52.298;13.690;2022-07-06T03:55:45;76938.41;;;-144.77;58.03
6449;BME280;3257;52.298;13.690;2022-07-06T03:58:34;76944.38;;;-144.77;58.18
6449;BME280;3257;52.298;13.690;2022-07-06T04:01:01;76956.28;;;-144.77;58.71
6449;BME280;3257;52.298;13.690;2022-07-06T04:03:27;76952.31;;;-144.77;59.89
6449;BME280;3257;52.298;13.690;2022-07-06T04:05:59;76976.16;;;-144.77;63.96
6449;BME280;3257;52.298;13.690;2022-07-06T04:08:25;77013.94;;;-144.77;68.50
6449;BME280;3257;52.298;13.690;2022-07-06T04:10:52;77045.72;;;-144.77;70.23
6449;BME280;3257;52.298;13.690;2022-07-06T04:13:19;77035.78;;;-144.77;71.27
6449;BME280;3257;52.298;13.690;2022-07-06T04:15:45;77051.69;;;-144.77;73.74
6449;BME280;3257;52.298;13.690;2022-07-06T04:18:12;77069.56;;;-144.77;74.04
6449;BME280;3257;52.298;13.690;2022-07-06T04:20:39;77079.50;;;-144.77;74.48
6449;BME280;3257;52.298;13.690;2022-07-06T04:23:06;77091.44;;;-144.77;74.37
6449;BME280;3257;52.298;13.690;2022-07-06T04:25:33;77091.44;;;-144.77;74.56
6449;BME280;3257;52.298;13.690;2022-07-06T04:28:00;77089.44;;;-144.77;75.39
6449;BME280;3257;52.298;13.690;2022-07-06T04:30:27;77075.53;;;-144.77;75.67
6449;BME280;3257;52.298;13.690;2022-07-06T04:32:53;77069.56;;;-144.77;76.10
6449;BME280;3257;52.298;13.690;2022-07-06T04:35:21;77071.56;;;-144.77;76.52
6449;BME280;3257;52.298;13.690;2022-07-06T04:37:48;77063.63;;;-144.77;76.57
6449;BME280;3257;52.298;13.690;2022-07-06T04:40:15;77067.59;;;-144.77;76.44
6449;BME280;3257;52.298;13.690;2022-07-06T04:42:44;77083.50;;;-144.77;75.04
6449;BME280;3257;52.298;13.690;2022-07-06T04:45:11;77089.44;;;-144.77;75.88
6449;BME280;3257;52.298;13.690;2022-07-06T04:47:38;77089.44;;;-144.77;74.73
6449;BME280;3257;52.298;13.690;2022-07-06T04:50:05;77083.50;;;-144.77;73.99
6449;BME280;3257;52.298;13.690;2022-07-06T04:52:32;77093.44;;;-144.77;74.83
6449;BME280;3257;52.298;13.690;2022-07-06T04:54:59;77095.41;;;-144.77;74.53
6449;BME280;3257;52.298;13.690;2022-07-06T04:57:25;77095.41;;;-144.77;74.24
6449;BME280;3257;52.298;13.690;2022-07-06T04:59:52;77091.44;;;-144.77;73.33
6449;BME280;3257;52.298;13.690;2022-07-06T05:02:19;77077.53;;;-144.77;73.77
6449;BME280;3257;52.298;13.690;2022-07-06T05:04:46;77077.53;;;-144.77;71.02
6449;BME280;3257;52.298;13.690;2022-07-06T05:07:12;77061.63;;;-144.77;70.80
6449;BME280;3257;52.298;13.690;2022-07-06T05:09:39;77049.69;;;-144.77;70.53
6449;BME280;3257;52.298;13.690;2022-07-06T05:12:06;77035.78;;;-144.77;70.23
6449;BME280;3257;52.298;13.690;2022-07-06T05:14:33;77013.94;;;-144.77;69.64
6449;BME280;3257;52.298;13.690;2022-07-06T05:17:00;76992.06;;;-144.77;69.20
6449;BME280;3257;52.298;13.690;2022-07-06T05:19:26;76978.16;;;-144.77;67.40
6449;BME280;3257;52.298;13.690;2022-07-06T05:21:53;76942.38;;;-144.77;67.31
6449;BME280;3257;52.298;13.690;2022-07-06T05:24:20;76928.47;;;-144.77;66.95
6449;BME280;3257;52.298;13.690;2022-07-06T05:26:47;76906.59;;;-144.77;67.99
6449;BME280;3257;52.298;13.690;2022-07-06T05:29:13;76904.63;;;-144.77;66.47
6449;BME280;3257;52.298;13.690;2022-07-06T05:31:40;76904.63;;;-144.77;66.27
6449;BME280;3257;52.298;13.690;2022-07-06T05:34:07;76918.53;;;-144.77;64.85
6449;BME280;3257;52.298;13.690;2022-07-06T05:36:33;76922.50;;;-144.77;64.35
6449;BME280;3257;52.298;13.690;2022-07-06T05:39:00;76922.50;;;-144.77;62.87
6449;BME280;3257;52.298;13.690;2022-07-06T05:41:26;76914.56;;;-144.77;64.24
6449;BME280;3257;52.298;13.690;2022-07-06T05:43:57;76912.56;;;-144.77;64.86
6449;BME280;3257;52.298;13.690;2022-07-06T05:46:23;76928.47;;;-144.77;62.95
6449;BME280;3257;52.298;13.690;2022-07-06T05:48:50;76936.41;;;-144.77;63.47
6449;BME280;3257;52.298;13.690;2022-07-06T05:51:35;76964.25;;;-144.77;62.69
6449;BME280;3257;52.298;13.690;2022-07-06T05:54:02;76952.31;;;-144.77;62.07
6449;BME280;3257;52.298;13.690;2022-07-06T05:56:28;76950.31;;;-144.77;62.07
6449;BME280;3257;52.298;13.690;2022-07-06T05:58:55;76956.28;;;-144.77;61.30
6449;BME280;3257;52.298;13.690;2022-07-06T06:01:22;76952.31;;;-144.77;60.62
6449;BME280;3257;52.298;13.690;2022-07-06T06:03:48;76934.44;;;-144.77;60.57
6449;BME280;3257;52.298;13.690;2022-07-06T06:06:15;76916.53;;;-144.77;59.24
6449;BME280;3257;52.298;13.690;2022-07-06T06:08:41;76916.53;;;-144.77;59.09
6449;BME280;3257;52.298;13.690;2022-07-06T06:11:08;76912.56;;;-144.77;59.76
6449;BME280;3257;52.298;13.690;2022-07-06T06:13:37;76908.59;;;-144.77;59.57
6449;BME280;3257;52.298;13.690;2022-07-06T06:16:03;76912.56;;;-144.77;59.12
6449;BME280;3257;52.298;13.690;2022-07-06T06:18:30;76912.56;;;-144.77;58.81
6449;BME280;3257;52.298;13.690;2022-07-06T06:21:04;76892.69;;;-144.77;58.52
6449;BME280;3257;52.298;13.690;2022-07-06T06:23:31;76900.66;;;-144.77;57.76
6449;BME280;3257;52.298;13.690;2022-07-06T06:25:57;76890.72;;;-144.77;57.37
6449;BME280;3257;52.298;13.690;2022-07-06T06:28:24;76880.78;;;-144.77;56.27
6449;BME280;3257;52.298;13.690;2022-07-06T06:30:51;76868.84;;;-144.77;56.39
6449;BME280;3257;52.298;13.690;2022-07-06T06:33:20;76866.84;;;-144.77;54.68
6449;BME280;3257;52.298;13.690;2022-07-06T06:35:51;76872.81;;;-144.77;54.84
6449;BME280;3257;52.298;13.690;2022-07-06T06:38:21;76856.94;;;-144.77;54.72
6449;BME280;3257;52.298;13.690;2022-07-06T06:40:49;76848.97;;;-144.77;53.77
6449;BME280;3257;52.298;13.690;2022-07-06T06:43:16;76831.09;;;-144.77;53.24
6449;BME280;3257;52.298;13.690;2022-07-06T06:45:43;76831.09;;;-144.77;52.87
6449;BME280;3257;52.298;13.690;2022-07-06T06:48:11;76815.19;;;-144.77;52.21
6449;BME280;3257;52.298;13.690;2022-07-06T06:50:43;76797.31;;;-144.77;51.69
6449;BME280;3257;52.298;13.690;2022-07-06T06:53:10;76765.50;;;-144.77;52.05
6449;BME280;3257;52.298;13.690;2022-07-06T06:55:37;76751.59;;;-144.77;51.51
6449;BME280;3257;52.298;13.690;2022-07-06T06:58:03;76723.78;;;-144.77;50.64
6449;BME280;3257;52.298;13.690;2022-07-06T07:00:32;76713.84;;;-144.77;49.77
6449;BME280;3257;52.298;13.690;2022-07-06T07:02:59;76697.94;;;-144.77;49.33
6449;BME280;3257;52.298;13.690;2022-07-06T07:05:26;76705.88;;;-144.77;48.71
6449;BME280;3257;52.298;13.690;2022-07-06T07:07:52;76745.63;;;-144.77;48.47
6449;BME280;3257;52.298;13.690;2022-07-06T07:10:29;76743.66;;;-144.77;50.11
6449;BME280;3257;52.298;13.690;2022-07-06T07:12:55;76745.63;;;-144.77;49.68
6449;BME280;3257;52.298;13.690;2022-07-06T07:15:22;76737.69;;;-144.77;50.82
6449;BME280;3257;52.298;13.690;2022-07-06T07:17:49;76725.75;;;-144.77;49.28
6449;BME280;3257;52.298;13.690;2022-07-06T07:20:15;76701.91;;;-144.77;49.98
6449;BME280;3257;52.298;13.690;2022-07-06T07:22:42;76715.81;;;-144.77;48.77
6449;BME280;3257;52.298;13.690;2022-07-06T07:25:09;76713.84;;;-144.77;48.78
6449;BME280;3257;52.298;13.690;2022-07-06T07:27:35;76719.81;;;-144.77;48.44
6449;BME280;3257;52.298;13.690;2022-07-06T07:30:03;76721.78;;;-144.77;48.38
6449;BME280;3257;52.298;13.690;2022-07-06T07:32:30;76741.66;;;-144.77;48.01
6449;BME280;3257;52.298;13.690;2022-07-06T07:34:56;76757.56;;;-144.77;48.24
6449;BME280;3257;52.298;13.690;2022-07-06T07:37:23;76749.59;;;-144.77;47.44
6449;BME280;3257;52.298;13.690;2022-07-06T07:39:50;76723.78;;;-144.77;48.01
6449;BME280;3257;52.298;13.690;2022-07-06T07:42:16;76705.88;;;-144.77;47.37
6449;BME280;3257;52.298;13.690;2022-07-06T07:44:44;76705.88;;;-144.77;47.38
6449;BME280;3257;52.298;13.690;2022-07-06T07:47:10;76701.91;;;-144.77;47.34
6449;BME280;3257;52.298;13.690;2022-07-06T07:49:37;76688.00;;;-144.77;47.04
6449;BME280;3257;52.298;13.690;2022-07-06T07:52:04;76690.00;;;-144.77;46.54
6449;BME280;3257;52.298;13.690;2022-07-06T07:54:30;76674.09;;;-144.77;46.76
6449;BME280;3257;52.298;13.690;2022-07-06T07:56:57;76654.22;;;-144.77;45.89
6449;BME280;3257;52.298;13.690;2022-07-06T07:59:24;76644.28;;;-144.77;45.39
6449;BME280;3257;52.298;13.690;2022-07-06T08:01:50;76632.34;;;-144.77;46.14
6449;BME280;3257;52.298;13.690;2022-07-06T08:04:18;76634.34;;;-144.77;45.53
6449;BME280;3257;52.298;13.690;2022-07-06T08:06:45;76624.41;;;-144.77;45.99
6449;BME280;3257;52.298;13.690;2022-07-06T08:09:11;76590.63;;;-144.77;45.89
6449;BME280;3257;52.298;13.690;2022-07-06T08:11:38;76588.63;;;-144.77;43.81
6449;BME280;3257;52.298;13.690;2022-07-06T08:14:05;76590.63;;;-144.77;43.06
6449;BME280;3257;52.298;13.690;2022-07-06T08:16:32;76576.72;;;-144.77;42.26
6449;BME280;3257;52.298;13.690;2022-07-06T08:18:58;76590.63;;;-144.77;41.14
6449;BME280;3257;52.298;13.690;2022-07-06T08:21:25;76596.59;;;-144.77;41.90
6449;BME280;3257;52.298;13.690;2022-07-06T08:23:54;76580.69;;;-144.77;42.49
6449;BME280;3257;52.298;13.690;2022-07-06T08:26:21;76574.72;;;-144.77;41.34
6449;BME280;3257;52.298;13.690;2022-07-06T08:28:47;76616.47;;;-144.77;42.15
6449;BME280;3257;52.298;13.690;2022-07-06T08:31:14;76594.59;;;-144.77;42.71
6449;BME280;3257;52.298;13.690;2022-07-06T08:34:02;76606.53;;;-144.77;43.09
6449;BME280;3257;52.298;13.690;2022-07-06T08:36:29;76644.28;;;-144.77;43.55
6449;BME280;3257;52.298;13.690;2022-07-06T08:38:56;76642.28;;;-144.77;44.33
6449;BME280;3257;52.298;13.690;2022-07-06T08:41:25;76616.47;;;-144.77;44.01
6449;BME280;3257;52.298;13.690;2022-07-06T08:43:53;76560.81;;;-144.77;42.35
6449;BME280;3257;52.298;13.690;2022-07-06T08:46:21;76582.69;;;-144.77;40.80
6449;BME280;3257;52.298;13.690;2022-07-06T08:48:49;76546.91;;;-144.77;40.66
6449;BME280;3257;52.298;13.690;2022-07-06T08:51:16;76574.72;;;-144.77;41.00
6449;BME280;3257;52.298;13.690;2022-07-06T08:53:44;76578.72;;;-144.77;40.83
6449;BME280;3257;52.298;13.690;2022-07-06T08:56:11;76598.56;;;-144.77;40.90
6449;BME280;3257;52.298;13.690;2022-07-06T08:58:40;76576.72;;;-144.77;40.33
6449;BME280;3257;52.298;13.690;2022-07-06T09:01:09;76574.72;;;-144.77;41.03
6449;BME280;3257;52.298;13.690;2022-07-06T09:03:40;76540.94;;;-144.77;40.97
6449;BME280;3257;52.298;13.690;2022-07-06T09:06:07;76533.00;;;-144.77;40.46
6449;BME280;3257;52.298;13.690;2022-07-06T09:08:35;76531.00;;;-144.77;39.91
6449;BME280;3257;52.298;13.690;2022-07-06T09:11:06;76509.16;;;-144.77;39.75
6449;BME280;3257;52.298;13.690;2022-07-06T09:13:33;76503.19;;;-144.77;40.19
6449;BME280;3257;52.298;13.690;2022-07-06T09:16:10;76491.28;;;-144.77;39.38
6449;BME280;3257;52.298;13.690;2022-07-06T09:18:57;76517.09;;;-144.77;38.79
6449;BME280;3257;52.298;13.690;2022-07-06T09:21:31;76523.06;;;-144.77;38.14
6449;BME280;3257;52.298;13.690;2022-07-06T09:24:01;76519.09;;;-144.77;38.44
6449;BME280;3257;52.298;13.690;2022-07-06T09:26:31;76531.00;;;-144.77;38.59
6449;BME280;3257;52.298;13.690;2022-07-06T09:28:58;76531.00;;;-144.77;37.61
6449;BME280;3257;52.298;13.690;2022-07-06T09:31:26;76519.09;;;-144.77;38.04
6449;BME280;3257;52.298;13.690;2022-07-06T09:34:02;76535.00;;;-144.77;38.24
6449;BME280;3257;52.298;13.690;2022-07-06T09:36:48;76550.88;;;-144.77;38.67
6449;BME280;3257;52.298;13.690;2022-07-06T09:39:23;76507.16;;;-144.77;39.44
6449;BME280;3257;52.298;13.690;2022-07-06T09:41:52;76533.00;;;-144.77;38.57
6449;BME280;3257;52.298;13.690;2022-07-06T09:46:53;76511.16;;;-144.77;37.57
6449;BME280;3257;52.298;13.690;2022-07-06T09:49:22;76546.91;;;-144.77;37.92
6449;BME280;3257;52.298;13.690;2022-07-06T09:51:54;76570.75;;;-144.77;37.99
6449;BME280;3257;52.298;13.690;2022-07-06T09:54:21;76558.84;;;-144.77;38.49
6449;BME280;3257;52.298;13.690;2022-07-06T09:56:49;76550.88;;;-144.77;38.69
6449;BME280;3257;52.298;13.690;2022-07-06T09:59:23;76521.09;;;-144.77;38.76
6449;BME280;3257;52.298;13.690;2022-07-06T10:01:56;76499.22;;;-144.77;38.56
6449;BME280;3257;52.298;13.690;2022-07-06T10:04:24;76507.16;;;-144.77;38.56
6449;BME280;3257;52.298;13.690;2022-07-06T10:06:53;76477.38;;;-144.77;38.03
6449;BME280;3257;52.298;13.690;2022-07-06T10:09:22;76546.91;;;-144.77;37.09
6449;BME280;3257;52.298;13.690;2022-07-06T10:11:52;76495.25;;;-144.77;37.34
6449;BME280;3257;52.298;13.690;2022-07-06T10:14:24;76511.16;;;-144.77;37.17
6449;BME280;3257;52.298;13.690;2022-07-06T10:16:52;76505.19;;;-144.77;36.67
6449;BME280;3257;52.298;13.690;2022-07-06T10:19:20;76527.03;;;-144.77;36.92
6449;BME280;3257;52.298;13.690;2022-07-06T10:21:48;76523.06;;;-144.77;37.44
6449;BME280;3257;52.298;13.690;2022-07-06T10:24:15;76511.16;;;-144.77;37.55
6449;BME280;3257;52.298;13.690;2022-07-06T10:26:41;76473.38;;;-144.77;37.69
6449;BME280;3257;52.298;13.690;2022-07-06T10:29:08;76443.59;;;-144.77;35.21
6449;BME280;3257;52.298;13.690;2022-07-06T10:31:39;76401.84;;;-144.77;35.13
6449;BME280;3257;52.298;13.690;2022-07-06T10:34:09;76425.69;;;-144.77;34.29
6449;BME280;3257;52.298;13.690;2022-07-06T10:36:38;76413.78;;;-144.77;34.56
6449;BME280;3257;52.298;13.690;2022-07-06T10:39:06;76395.91;;;-144.77;33.68
6449;BME280;3257;52.298;13.690;2022-07-06T10:41:51;76399.88;;;-144.77;34.14
6449;BME280;3257;52.298;13.690;2022-07-06T10:44:21;76362.09;;;-144.77;34.02
6449;BME280;3257;52.298;13.690;2022-07-06T10:46:56;76332.31;;;-144.77;33.93
6449;BME280;3257;52.298;13.690;2022-07-06T10:49:24;76306.47;;;-144.77;34.43
6449;BME280;3257;52.298;13.690;2022-07-06T10:52:11;76312.44;;;-144.77;34.61
6449;BME280;3257;52.298;13.690;2022-07-06T10:54:42;76368.06;;;-144.77;34.59
6449;BME280;3257;52.298;13.690;2022-07-06T10:57:10;76330.31;;;-144.77;34.31
6449;BME280;3257;52.298;13.690;2022-07-06T11:00:00;76312.44;;;-144.77;34.26
6449;BME280;3257;52.298;13.690;2022-07-06T11:02:38;76266.72;;;-144.77;33.66
6449;BME280;3257;52.298;13.690;2022-07-06T11:05:11;76284.63;;;-144.77;33.54
6449;BME280;3257;52.298;13.690;2022-07-06T11:07:49;76304.50;;;-144.77;33.72
6449;BME280;3257;52.298;13.690;2022-07-06T11:10:16;76280.66;;;-144.77;33.74
6449;BME280;3257;52.298;13.690;2022-07-06T11:12:46;76300.50;;;-144.77;33.31
6449;BME280;3257;52.298;13.690;2022-07-06T11:15:48;76332.31;;;-144.77;33.16
6449;BME280;3257;52.298;13.690;2022-07-06T11:18:19;76346.22;;;-144.77;34.16
6449;BME280;3257;52.298;13.690;2022-07-06T11:23:46;76286.59;;;-144.77;34.21
6449;BME280;3257;52.298;13.690;2022-07-06T11:26:14;76294.56;;;-144.77;34.21
6449;BME280;3257;52.298;13.690;2022-07-06T11:28:41;76298.53;;;-144.77;33.38
6449;BME280;3257;52.298;13.690;2022-07-06T11:31:07;76290.56;;;-144.77;33.84
6449;BME280;3257;52.298;13.690;2022-07-06T11:33:34;76284.63;;;-144.77;33.64
6449;BME280;3257;52.298;13.690;2022-07-06T11:36:22;76225.00;;;-144.77;33.44
6449;BME280;3257;52.298;13.690;2022-07-06T11:38:49;76230.97;;;-144.77;32.74
6449;BME280;3257;52.298;13.690;2022-07-06T11:41:17;76228.97;;;-144.77;32.56
6449;BME280;3257;52.298;13.690;2022-07-06T11:43:46;76276.66;;;-144.77;33.44
6449;BME280;3257;52.298;13.690;2022-07-06T11:46:26;76264.75;;;-144.77;33.04
6449;BME280;3257;52.298;13.690;2022-07-06T11:49:07;76354.16;;;-144.77;34.02
6449;BME280;3257;52.298;13.690;2022-07-06T11:51:37;76326.34;;;-144.77;34.64
6449;BME280;3257;52.298;13.690;2022-07-06T11:54:15;76308.47;;;-144.77;34.79
6449;BME280;3257;52.298;13.690;2022-07-06T11:56:47;76292.56;;;-144.77;34.79
6449;BME280;3257;52.298;13.690;2022-07-06T11:59:14;76232.94;;;-144.77;34.82
6449;BME280;3257;52.298;13.690;2022-07-06T12:01:42;76165.41;;;-144.77;33.46
6449;BME280;3257;52.298;13.690;2022-07-06T12:04:11;76143.53;;;-144.77;31.91
6449;BME280;3257;52.298;13.690;2022-07-06T12:06:38;76131.63;;;-144.77;32.22
6449;BME280;3257;52.298;13.690;2022-07-06T12:09:09;76141.56;;;-144.77;32.04
6449;BME280;3257;52.298;13.690;2022-07-06T12:11:36;76167.38;;;-144.77;32.91
6449;BME280;3257;52.298;13.690;2022-07-06T12:14:16;76175.34;;;-144.77;32.54
6449;BME280;3257;52.298;13.690;2022-07-06T12:16:44;76213.09;;;-144.77;32.96
6449;BME280;3257;52.298;13.690;2022-07-06T12:19:11;76209.09;;;-144.77;33.76
6449;BME280;3257;52.298;13.690;2022-07-06T12:21:45;76185.25;;;-144.77;34.11
6449;BME280;3257;52.298;13.690;2022-07-06T12:24:17;76191.22;;;-144.77;33.80
6449;BME280;3257;52.298;13.690;2022-07-06T12:26:45;76250.84;;;-144.77;34.19
6449;BME280;3257;52.298;13.690;2022-07-06T12:29:13;76203.16;;;-144.77;34.09
6449;BME280;3257;52.298;13.690;2022-07-06T12:31:47;76201.16;;;-144.77;33.86
6449;BME280;3257;52.298;13.690;2022-07-06T12:34:16;76252.81;;;-144.77;33.79
6449;BME280;3257;52.298;13.690;2022-07-06T12:36:48;76254.81;;;-144.77;33.74
6449;BME280;3257;52.298;13.690;2022-07-06T12:39:17;76270.72;;;-144.77;33.68
6449;BME280;3257;52.298;13.690;2022-07-06T12:41:47;76264.75;;;-144.77;34.06
6449;BME280;3257;52.298;13.690;2022-07-06T12:44:16;76260.78;;;-144.77;34.44
6449;BME280;3257;52.298;13.690;2022-07-06T12:46:43;76260.78;;;-144.77;34.94
6449;BME280;3257;52.298;13.690;2022-07-06T12:49:21;76288.59;;;-144.77;35.06
6449;BME280;3257;52.298;13.690;2022-07-06T12:54:24;76286.59;;;-144.77;34.64
6449;BME280;3257;52.298;13.690;2022-07-06T12:59:38;76298.53;;;-144.77;34.53
6449;BME280;3257;52.298;13.690;2022-07-06T13:02:06;76302.50;;;-144.77;34.65
6449;BME280;3257;52.298;13.690;2022-07-06T13:04:35;76324.34;;;-144.77;34.70
6449;BME280;3257;52.298;13.690;2022-07-06T13:07:03;76330.31;;;-144.77;35.02
6449;BME280;3257;52.298;13.690;2022-07-06T13:09:33;76268.72;;;-144.77;34.85